sensor_id;sensor_type;location;lat;lon;timestamp;pressure;altitude;pressure_sealevel;temperature;humidity
7930;BME280;4010;42.698;23.124;2024-01-30T00:01:03;118349.16;;;-140.64;79.95
7930;BME280;4010;42.698;23.124;2024-01-30T00:03:30;118349.16;;;-140.64;79.95
7930;BME280;4010;42.698;23.124;2024-01-30T00:05:57;118349.16;;;-140.64;79.98
7930;BME280;4010;42.698;23.124;2024-01-30T00:08:25;118349.16;;;-140.64;80.20
7930;BME280;4010;42.698;23.124;2024-01-30T00:10:52;118349.16;;;-140.64;80.29
7930;BME280;4010;42.698;23.124;2024-01-30T00:13:19;118349.16;;;-140.64;80.24
7930;BME280;4010;42.698;23.124;2024-01-30T00:15:45;118349.16;;;-140.64;80.13
7930;BME280;4010;42.698;23.124;2024-01-30T00:18:12;118349.16;;;-140.64;80.29
7930;BME280;4010;42.698;23.124;2024-01-30T00:20:39;118349.16;;;-140.64;80.08
7930;BME280;4010;42.698;23.124;2024-01-30T00:23:05;118349.16;;;-140.64;79.81
7930;BME280;4010;42.698;23.124;2024-01-30T00:25:34;118349.16;;;-140.64;80.03
7930;BME280;4010;42.698;23.124;2024-01-30T00:28:00;118349.16;;;-140.64;80.19
7930;BME280;4010;42.698;23.124;2024-01-30T00:30:27;118349.16;;;-140.64;80.18
7930;BME280;4010;42.698;23.124;2024-01-30T00:32:54;118349.16;;;-140.64;80.08
7930;BME280;4010;42.698;23.124;2024-01-30T00:35:21;118349.16;;;-140.64;80.29
7930;BME280;4010;42.698;23.124;2024-01-30T00:37:48;118349.16;;;-140.64;80.06
7930;BME280;4010;42.698;23.124;2024-01-30T00:40:15;118349.16;;;-140.64;80.30
7930;BME280;4010;42.698;23.124;2024-01-30T00:42:44;118349.16;;;-140.64;80.46
7930;BME280;4010;42.698;23.124;2024-01-30T00:45:14;118349.16;;;-140.64;80.36
7930;BME280;4010;42.698;23.124;2024-01-30T00:47:40;118349.16;;;-140.64;80.43
7930;BME280;4010;42.698;23.124;2024-01-30T00:50:08;118349.16;;;-140.64;80.71
7930;BME280;4010;42.698;23.124;2024-01-30T00:52:35;118349.16;;;-140.64;80.80
7930;BME280;4010;42.698;23.124;2024-01-30T00:55:02;118349.16;;;-140.64;81.15
7930;BME280;4010;42.698;23.124;2024-01-30T00:57:29;118349.16;;;-140.64;81.44
7930;BME280;4010;42.698;23.124;2024-01-30T00:59:57;118349.16;;;-140.64;81.36
7930;BME280;4010;42.698;23.124;2024-01-30T01:02:23;118349.16;;;-140.64;81.15
7930;BME280;4010;42.698;23.124;2024-01-30T01:04:50;118349.16;;;-140.64;81.06
7930;BME280;4010;42.698;23.124;2024-01-30T01:07:17;118349.16;;;-140.64;81.24
7930;BME280;4010;42.698;23.124;2024-01-30T01:09:43;118349.16;;;-140.64;81.22
7930;BME280;4010;42.698;23.124;2024-01-30T01:12:10;118349.16;;;-140.64;81.01
7930;BME280;4010;42.698;23.124;2024-01-30T01:14:37;118349.16;;;-140.64;81.06
7930;BME280;4010;42.698;23.124;2024-01-30T01:17:05;118349.16;;;-140.64;81.04
7930;BME280;4010;42.698;23.124;2024-01-30T01:19:31;118349.16;;;-140.64;81.43
7930;BME280;4010;42.698;23.124;2024-01-30T01:21:58;118349.16;;;-140.64;81.82
7930;BME280;4010;42.698;23.124;2024-01-30T01:24:25;118349.16;;;-140.64;82.29
7930;BME280;4010;42.698;23.124;2024-01-30T01:26:51;118349.16;;;-140.64;82.57
7930;BME280;4010;42.698;23.124;2024-01-30T01:29:18;118349.16;;;-140.64;83.07
7930;BME280;4010;42.698;23.124;2024-01-30T01:31:46;118349.16;;;-140.64;83.29
7930;BME280;4010;42.698;23.124;2024-01-30T01:34:14;118349.16;;;-140.64;83.36
7930;BME280;4010;42.698;23.124;2024-01-30T01:36:40;118349.16;;;-140.64;83.86
7930;BME280;4010;42.698;23.124;2024-01-30T01:39:07;118349.16;;;-140.64;84.04
7930;BME280;4010;42.698;23.124;2024-01-30T01:41:34;118349.16;;;-140.64;83.59
7930;BME280;4010;42.698;23.124;2024-01-30T01:44:01;118349.16;;;-140.64;82.96
7930;BME280;4010;42.698;23.124;2024-01-30T01:46:30;118349.16;;;-140.64;82.57
7930;BME280;4010;42.698;23.124;2024-01-30T01:49:00;118349.16;;;-140.64;82.30
7930;BME280;4010;42.698;23.124;2024-01-30T01:51:29;118349.16;;;-140.64;82.27
7930;BME280;4010;42.698;23.124;2024-01-30T01:53:59;118349.16;;;-140.64;81.92
7930;BME280;4010;42.698;23.124;2024-01-30T01:56:29;118349.16;;;-140.64;81.55
7930;BME280;4010;42.698;23.124;2024-01-30T01:58:59;118349.16;;;-140.64;81.27
7930;BME280;4010;42.698;23.124;2024-01-30T02:01:27;118349.16;;;-140.64;81.34
7930;BME280;4010;42.698;23.124;2024-01-30T02:03:55;118349.16;;;-140.64;81.17
7930;BME280;4010;42.698;23.124;2024-01-30T02:06:22;118349.16;;;-140.64;81.11
7930;BME280;4010;42.698;23.124;2024-01-30T02:08:50;118349.16;;;-140.64;81.21
7930;BME280;4010;42.698;23.124;2024-01-30T02:11:18;118349.16;;;-140.64;80.99
7930;BME280;4010;42.698;23.124;2024-01-30T02:13:45;118349.16;;;-140.64;80.83
7930;BME280;4010;42.698;23.124;2024-01-30T02:16:11;118349.16;;;-140.64;80.83
7930;BME280;4010;42.698;23.124;2024-01-30T02:18:38;118349.16;;;-140.64;80.76
7930;BME280;4010;42.698;23.124;2024-01-30T02:21:10;118349.16;;;-140.64;80.78
7930;BME280;4010;42.698;23.124;2024-01-30T02:23:37;118349.16;;;-140.64;80.50
7930;BME280;4010;42.698;23.124;2024-01-30T02:26:04;118349.16;;;-140.64;80.50
7930;BME280;4010;42.698;23.124;2024-01-30T02:28:31;118349.16;;;-140.64;80.20
7930;BME280;4010;42.698;23.124;2024-01-30T02:30:57;118349.16;;;-140.64;80.17
7930;BME280;4010;42.698;23.124;2024-01-30T02:33:24;118349.16;;;-140.64;79.76
7930;BME280;4010;42.698;23.124;2024-01-30T02:35:51;118349.16;;;-140.64;79.71
7930;BME280;4010;42.698;23.124;2024-01-30T02:38:19;118349.16;;;-140.64;79.67
7930;BME280;4010;42.698;23.124;2024-01-30T02:40:45;118349.16;;;-140.64;79.60
7930;BME280;4010;42.698;23.124;2024-01-30T02:43:12;118349.16;;;-140.64;79.36
7930;BME280;4010;42.698;23.124;2024-01-30T02:45:39;118349.16;;;-140.64;79.27
7930;BME280;4010;42.698;23.124;2024-01-30T02:48:06;118349.16;;;-140.64;79.37
7930;BME280;4010;42.698;23.124;2024-01-30T02:50:33;118349.16;;;-140.64;79.04
7930;BME280;4010;42.698;23.124;2024-01-30T02:52:59;118349.16;;;-140.64;79.11
7930;BME280;4010;42.698;23.124;2024-01-30T02:55:28;118349.16;;;-140.64;78.72
7930;BME280;4010;42.698;23.124;2024-01-30T02:57:54;118349.16;;;-140.64;78.50
7930;BME280;4010;42.698;23.124;2024-01-30T03:00:21;118349.16;;;-140.64;78.63
7930;BME280;4010;42.698;23.124;2024-01-30T03:02:48;118349.16;;;-140.64;78.38
7930;BME280;4010;42.698;23.124;2024-01-30T03:05:14;118349.16;;;-140.64;78.55
7930;BME280;4010;42.698;23.124;2024-01-30T03:07:41;118349.16;;;-140.64;78.69
7930;BME280;4010;42.698;23.124;2024-01-30T03:10:08;118349.16;;;-140.64;78.47
7930;BME280;4010;42.698;23.124;2024-01-30T03:12:36;118349.16;;;-140.64;78.35
7930;BME280;4010;42.698;23.124;2024-01-30T03:15:03;118349.16;;;-140.64;78.17
7930;BME280;4010;42.698;23.124;2024-01-30T03:17:30;118349.16;;;-140.64;78.37
7930;BME280;4010;42.698;23.124;2024-01-30T03:19:57;118349.16;;;-140.64;78.16
7930;BME280;4010;42.698;23.124;2024-01-30T03:22:24;118349.16;;;-140.64;78.21
7930;BME280;4010;42.698;23.124;2024-01-30T03:24:51;118349.16;;;-140.64;77.99
7930;BME280;4010;42.698;23.124;2024-01-30T03:27:17;118349.16;;;-140.64;77.96
7930;BME280;4010;42.698;23.124;2024-01-30T03:29:45;118349.16;;;-140.64;78.25
7930;BME280;4010;42.698;23.124;2024-01-30T03:32:12;118349.16;;;-140.64;78.53
7930;BME280;4010;42.698;23.124;2024-01-30T03:34:39;118349.16;;;-140.64;78.02
7930;BME280;4010;42.698;23.124;2024-01-30T03:37:06;118349.16;;;-140.64;77.96
7930;BME280;4010;42.698;23.124;2024-01-30T03:39:32;118349.16;;;-140.64;77.46
7930;BME280;4010;42.698;23.124;2024-01-30T03:41:59;118349.16;;;-140.64;77.33
7930;BME280;4010;42.698;23.124;2024-01-30T03:44:26;118349.16;;;-140.64;77.63
7930;BME280;4010;42.698;23.124;2024-01-30T03:46:54;118349.16;;;-140.64;76.94
7930;BME280;4010;42.698;23.124;2024-01-30T03:49:21;118349.16;;;-140.64;76.98
7930;BME280;4010;42.698;23.124;2024-01-30T03:51:48;118349.16;;;-140.64;77.14
7930;BME280;4010;42.698;23.124;2024-01-30T03:54:15;118349.16;;;-140.64;76.94
7930;BME280;4010;42.698;23.124;2024-01-30T03:56:41;118349.16;;;-140.64;76.88
7930;BME280;4010;42.698;23.124;2024-01-30T03:59:08;118349.16;;;-140.64;76.59
7930;BME280;4010;42.698;23.124;2024-01-30T04:01:35;118349.16;;;-140.64;76.53
7930;BME280;4010;42.698;23.124;2024-01-30T04:04:03;118349.16;;;-140.64;76.37
7930;BME280;4010;42.698;23.124;2024-01-30T04:06:30;118349.16;;;-140.64;76.16
7930;BME280;4010;42.698;23.124;2024-01-30T04:08:56;118349.16;;;-140.64;75.04
7930;BME280;4010;42.698;23.124;2024-01-30T04:11:23;118349.16;;;-140.64;75.20
7930;BME280;4010;42.698;23.124;2024-01-30T04:13:50;118349.16;;;-140.64;74.52
7930;BME280;4010;42.698;23.124;2024-01-30T04:16:20;118349.16;;;-140.64;74.57
7930;BME280;4010;42.698;23.124;2024-01-30T04:18:47;118349.16;;;-140.64;74.28
7930;BME280;4010;42.698;23.124;2024-01-30T04:21:15;118349.16;;;-140.64;74.26
7930;BME280;4010;42.698;23.124;2024-01-30T04:23:42;118349.16;;;-140.64;74.22
7930;BME280;4010;42.698;23.124;2024-01-30T04:26:09;118349.16;;;-140.64;74.36
7930;BME280;4010;42.698;23.124;2024-01-30T04:28:36;118349.16;;;-140.64;74.75
7930;BME280;4010;42.698;23.124;2024-01-30T04:31:03;118349.16;;;-140.64;75.40
7930;BME280;4010;42.698;23.124;2024-01-30T04:33:30;118349.16;;;-140.64;76.60
7930;BME280;4010;42.698;23.124;2024-01-30T04:35:56;118349.16;;;-140.64;77.25
7930;BME280;4010;42.698;23.124;2024-01-30T04:38:24;118349.16;;;-140.64;77.37
7930;BME280;4010;42.698;23.124;2024-01-30T04:40:51;118349.16;;;-140.64;77.79
7930;BME280;4010;42.698;23.124;2024-01-30T04:43:18;118349.16;;;-140.64;78.00
7930;BME280;4010;42.698;23.124;2024-01-30T04:45:45;118349.16;;;-140.64;77.79
7930;BME280;4010;42.698;23.124;2024-01-30T04:48:12;118349.16;;;-140.64;77.25
7930;BME280;4010;42.698;23.124;2024-01-30T04:50:39;118349.16;;;-140.64;76.94
7930;BME280;4010;42.698;23.124;2024-01-30T04:53:05;118349.16;;;-140.64;76.76
7930;BME280;4010;42.698;23.124;2024-01-30T04:55:35;118349.16;;;-140.64;76.24
7930;BME280;4010;42.698;23.124;2024-01-30T04:58:02;118349.16;;;-140.64;76.29
7930;BME280;4010;42.698;23.124;2024-01-30T05:00:28;118349.16;;;-140.64;76.26
7930;BME280;4010;42.698;23.124;2024-01-30T05:02:55;118349.16;;;-140.64;76.44
7930;BME280;4010;42.698;23.124;2024-01-30T05:05:22;118349.16;;;-140.64;76.63
7930;BME280;4010;42.698;23.124;2024-01-30T05:07:49;118349.16;;;-140.64;77.02
7930;BME280;4010;42.698;23.124;2024-01-30T05:10:15;118349.16;;;-140.64;77.49
7930;BME280;4010;42.698;23.124;2024-01-30T05:12:43;118349.16;;;-140.64;77.89
7930;BME280;4010;42.698;23.124;2024-01-30T05:15:10;118349.16;;;-140.64;78.37
7930;BME280;4010;42.698;23.124;2024-01-30T05:17:37;118349.16;;;-140.64;78.51
7930;BME280;4010;42.698;23.124;2024-01-30T05:20:04;118349.16;;;-140.64;79.07
7930;BME280;4010;42.698;23.124;2024-01-30T05:22:31;118349.16;;;-140.64;78.75
7930;BME280;4010;42.698;23.124;2024-01-30T05:24:58;118349.16;;;-140.64;78.70
7930;BME280;4010;42.698;23.124;2024-01-30T05:27:25;118349.16;;;-140.64;78.60
7930;BME280;4010;42.698;23.124;2024-01-30T05:29:53;118349.16;;;-140.64;78.34
7930;BME280;4010;42.698;23.124;2024-01-30T05:32:20;118349.16;;;-140.64;78.37
7930;BME280;4010;42.698;23.124;2024-01-30T05:34:46;118349.16;;;-140.64;78.36
7930;BME280;4010;42.698;23.124;2024-01-30T05:37:15;118349.16;;;-140.64;78.39
7930;BME280;4010;42.698;23.124;2024-01-30T05:39:43;118349.16;;;-140.64;78.21
7930;BME280;4010;42.698;23.124;2024-01-30T05:42:09;118349.16;;;-140.64;78.39
7930;BME280;4010;42.698;23.124;2024-01-30T05:44:36;118349.16;;;-140.64;78.19
7930;BME280;4010;42.698;23.124;2024-01-30T05:47:04;118349.16;;;-140.64;78.13
7930;BME280;4010;42.698;23.124;2024-01-30T05:49:31;118349.16;;;-140.64;77.95
7930;BME280;4010;42.698;23.124;2024-01-30T05:51:58;118349.16;;;-140.64;77.87
7930;BME280;4010;42.698;23.124;2024-01-30T05:54:24;118349.16;;;-140.64;77.76
7930;BME280;4010;42.698;23.124;2024-01-30T05:56:51;118349.16;;;-140.64;77.74
7930;BME280;4010;42.698;23.124;2024-01-30T05:59:17;118349.16;;;-140.64;77.86
7930;BME280;4010;42.698;23.124;2024-01-30T06:01:45;118349.16;;;-140.64;77.75
7930;BME280;4010;42.698;23.124;2024-01-30T06:04:14;118349.16;;;-140.64;77.59
7930;BME280;4010;42.698;23.124;2024-01-30T06:06:41;118349.16;;;-140.64;77.58
7930;BME280;4010;42.698;23.124;2024-01-30T06:09:08;118349.16;;;-140.64;77.55
7930;BME280;4010;42.698;23.124;2024-01-30T06:11:35;118349.16;;;-140.64;77.39
7930;BME280;4010;42.698;23.124;2024-01-30T06:14:01;118349.16;;;-140.64;77.32
7930;BME280;4010;42.698;23.124;2024-01-30T06:16:28;118349.16;;;-140.64;77.21
7930;BME280;4010;42.698;23.124;2024-01-30T06:18:55;118349.16;;;-140.64;77.17
7930;BME280;4010;42.698;23.124;2024-01-30T06:21:25;118349.16;;;-140.64;76.99
7930;BME280;4010;42.698;23.124;2024-01-30T06:23:51;118349.16;;;-140.64;77.07
7930;BME280;4010;42.698;23.124;2024-01-30T06:26:18;118349.16;;;-140.64;76.95
7930;BME280;4010;42.698;23.124;2024-01-30T06:28:45;118349.16;;;-140.64;76.60
7930;BME280;4010;42.698;23.124;2024-01-30T06:31:12;118349.16;;;-140.64;76.78
7930;BME280;4010;42.698;23.124;2024-01-30T06:33:38;118349.16;;;-140.64;76.60
7930;BME280;4010;42.698;23.124;2024-01-30T06:36:08;118349.16;;;-140.64;76.72
7930;BME280;4010;42.698;23.124;2024-01-30T06:38:36;118349.16;;;-140.64;76.70
7930;BME280;4010;42.698;23.124;2024-01-30T06:41:02;118349.16;;;-140.64;76.81
7930;BME280;4010;42.698;23.124;2024-01-30T06:43:29;118349.16;;;-140.64;76.67
7930;BME280;4010;42.698;23.124;2024-01-30T06:45:56;118349.16;;;-140.64;76.05
7930;BME280;4010;42.698;23.124;2024-01-30T06:48:23;118349.16;;;-140.64;75.57
7930;BME280;4010;42.698;23.124;2024-01-30T06:50:49;118349.16;;;-140.64;75.82
7930;BME280;4010;42.698;23.124;2024-01-30T06:53:16;118349.16;;;-140.64;75.05
7930;BME280;4010;42.698;23.124;2024-01-30T06:55:44;118349.16;;;-140.64;74.80
7930;BME280;4010;42.698;23.124;2024-01-30T06:58:12;118349.16;;;-140.64;74.71
7930;BME280;4010;42.698;23.124;2024-01-30T07:00:38;118349.16;;;-140.64;74.41
7930;BME280;4010;42.698;23.124;2024-01-30T07:03:05;118349.16;;;-140.64;74.30
7930;BME280;4010;42.698;23.124;2024-01-30T07:05:32;118349.16;;;-140.64;73.67
7930;BME280;4010;42.698;23.124;2024-01-30T07:07:59;118349.16;;;-140.64;73.44
7930;BME280;4010;42.698;23.124;2024-01-30T07:10:26;118349.16;;;-140.64;74.08
7930;BME280;4010;42.698;23.124;2024-01-30T07:12:54;118349.16;;;-140.64;73.79
7930;BME280;4010;42.698;23.124;2024-01-30T07:15:20;118349.16;;;-140.64;73.60
7930;BME280;4010;42.698;23.124;2024-01-30T07:17:47;118349.16;;;-140.64;73.76
7930;BME280;4010;42.698;23.124;2024-01-30T07:20:14;118349.16;;;-140.64;73.62
7930;BME280;4010;42.698;23.124;2024-01-30T07:22:40;118349.16;;;-140.64;73.93
7930;BME280;4010;42.698;23.124;2024-01-30T07:25:08;118349.16;;;-140.64;73.48
7930;BME280;4010;42.698;23.124;2024-01-30T07:27:35;118349.16;;;-140.64;73.38
7930;BME280;4010;42.698;23.124;2024-01-30T07:30:04;118349.16;;;-140.64;73.39
7930;BME280;4010;42.698;23.124;2024-01-30T07:32:31;118349.16;;;-140.64;73.35
7930;BME280;4010;42.698;23.124;2024-01-30T07:34:58;118349.16;;;-140.64;73.05
7930;BME280;4010;42.698;23.124;2024-01-30T07:37:24;118349.16;;;-140.64;72.91
7930;BME280;4010;42.698;23.124;2024-01-30T07:39:51;118349.16;;;-140.64;72.72
7930;BME280;4010;42.698;23.124;2024-01-30T07:42:18;118349.16;;;-140.64;72.17
7930;BME280;4010;42.698;23.124;2024-01-30T07:44:45;118349.16;;;-140.64;72.34
7930;BME280;4010;42.698;23.124;2024-01-30T07:47:13;118349.16;;;-140.64;70.08
7930;BME280;4010;42.698;23.124;2024-01-30T07:49:39;118349.16;;;-140.64;68.63
7930;BME280;4010;42.698;23.124;2024-01-30T07:52:06;118349.16;;;-140.64;66.80
7930;BME280;4010;42.698;23.124;2024-01-30T07:54:33;118349.16;;;-140.64;66.54
7930;BME280;4010;42.698;23.124;2024-01-30T07:57:00;118349.16;;;-140.64;66.97
7930;BME280;4010;42.698;23.124;2024-01-30T07:59:27;118349.16;;;-140.64;65.27
7930;BME280;4010;42.698;23.124;2024-01-30T08:01:53;118349.16;;;-140.64;65.27
7930;BME280;4010;42.698;23.124;2024-01-30T08:04:21;118349.16;;;-140.64;64.80
7930;BME280;4010;42.698;23.124;2024-01-30T08:06:48;118349.16;;;-140.64;64.58
7930;BME280;4010;42.698;23.124;2024-01-30T08:09:15;118349.16;;;-140.64;63.20
7930;BME280;4010;42.698;23.124;2024-01-30T08:11:41;118349.16;;;-140.64;62.98
7930;BME280;4010;42.698;23.124;2024-01-30T08:14:08;118349.16;;;-140.64;62.30
7930;BME280;4010;42.698;23.124;2024-01-30T08:16:35;118349.16;;;-140.64;62.90
7930;BME280;4010;42.698;23.124;2024-01-30T08:19:02;118349.16;;;-140.64;61.63
7930;BME280;4010;42.698;23.124;2024-01-30T08:21:30;118349.16;;;-140.64;60.04
7930;BME280;4010;42.698;23.124;2024-01-30T08:24:02;118349.16;;;-140.64;59.25
7930;BME280;4010;42.698;23.124;2024-01-30T08:26:28;118349.16;;;-140.64;57.93
7930;BME280;4010;42.698;23.124;2024-01-30T08:28:55;118349.16;;;-140.64;58.41
7930;BME280;4010;42.698;23.124;2024-01-30T08:31:22;118349.16;;;-140.64;58.03
7930;BME280;4010;42.698;23.124;2024-01-30T08:33:48;118349.16;;;-140.64;57.93
7930;BME280;4010;42.698;23.124;2024-01-30T08:36:15;118349.16;;;-140.64;58.77
7930;BME280;4010;42.698;23.124;2024-01-30T08:38:43;118349.16;;;-140.64;57.82
7930;BME280;4010;42.698;23.124;2024-01-30T08:41:10;118349.16;;;-140.64;56.94
7930;BME280;4010;42.698;23.124;2024-01-30T08:43:37;118349.16;;;-140.64;55.87
7930;BME280;4010;42.698;23.124;2024-01-30T08:46:04;118349.16;;;-140.64;57.32
7930;BME280;4010;42.698;23.124;2024-01-30T08:48:30;118349.16;;;-140.64;56.94
7930;BME280;4010;42.698;23.124;2024-01-30T08:50:57;118349.16;;;-140.64;55.71
7930;BME280;4010;42.698;23.124;2024-01-30T08:53:24;118349.16;;;-140.64;56.89
7930;BME280;4010;42.698;23.124;2024-01-30T08:55:52;118349.16;;;-140.64;55.66
7930;BME280;4010;42.698;23.124;2024-01-30T08:58:19;118349.16;;;-140.64;56.65
7930;BME280;4010;42.698;23.124;2024-01-30T09:00:46;118349.16;;;-140.64;55.78
7930;BME280;4010;42.698;23.124;2024-01-30T09:03:13;118349.16;;;-140.64;56.68
7930;BME280;4010;42.698;23.124;2024-01-30T09:05:39;118349.16;;;-140.64;57.79
7930;BME280;4010;42.698;23.124;2024-01-30T09:08:06;118349.16;;;-140.64;56.80
7930;BME280;4010;42.698;23.124;2024-01-30T09:10:33;118349.16;;;-140.64;56.41
7930;BME280;4010;42.698;23.124;2024-01-30T09:13:01;118349.16;;;-140.64;57.38
7930;BME280;4010;42.698;23.124;2024-01-30T09:15:28;118349.16;;;-140.64;57.96
7930;BME280;4010;42.698;23.124;2024-01-30T09:17:55;118349.16;;;-140.64;57.52
7930;BME280;4010;42.698;23.124;2024-01-30T09:20:22;118349.16;;;-140.64;56.99
7930;BME280;4010;42.698;23.124;2024-01-30T09:22:48;118349.16;;;-140.64;59.52
7930;BME280;4010;42.698;23.124;2024-01-30T09:25:15;118349.16;;;-140.64;57.96
7930;BME280;4010;42.698;23.124;2024-01-30T09:27:44;118349.16;;;-140.64;57.47
7930;BME280;4010;42.698;23.124;2024-01-30T09:30:12;118349.16;;;-140.64;57.36
7930;BME280;4010;42.698;23.124;2024-01-30T09:32:39;118349.16;;;-140.64;56.25
7930;BME280;4010;42.698;23.124;2024-01-30T09:35:07;118349.16;;;-140.64;56.35
7930;BME280;4010;42.698;23.124;2024-01-30T09:37:33;118349.16;;;-140.64;56.01
7930;BME280;4010;42.698;23.124;2024-01-30T09:40:00;118349.16;;;-140.64;56.75
7930;BME280;4010;42.698;23.124;2024-01-30T09:42:31;118349.16;;;-140.64;56.17
7930;BME280;4010;42.698;23.124;2024-01-30T09:44:59;118349.16;;;-140.64;57.18
7930;BME280;4010;42.698;23.124;2024-01-30T09:47:27;118349.16;;;-140.64;56.35
7930;BME280;4010;42.698;23.124;2024-01-30T09:49:55;118349.16;;;-140.64;56.36
7930;BME280;4010;42.698;23.124;2024-01-30T09:52:22;118349.16;;;-140.64;57.38
7930;BME280;4010;42.698;23.124;2024-01-30T09:54:49;118349.16;;;-140.64;58.39
7930;BME280;4010;42.698;23.124;2024-01-30T09:57:17;118349.16;;;-140.64;57.15
7930;BME280;4010;42.698;23.124;2024-01-30T09:59:44;118349.16;;;-140.64;56.32
7930;BME280;4010;42.698;23.124;2024-01-30T10:02:11;118349.16;;;-140.64;55.75
7930;BME280;4010;42.698;23.124;2024-01-30T10:04:39;118349.16;;;-140.64;55.66
7930;BME280;4010;42.698;23.124;2024-01-30T10:07:06;118349.16;;;-140.64;53.19
7930;BME280;4010;42.698;23.124;2024-01-30T10:09:33;118349.16;;;-140.64;53.59
7930;BME280;4010;42.698;23.124;2024-01-30T10:12:01;118349.16;;;-140.64;54.22
7930;BME280;4010;42.698;23.124;2024-01-30T10:14:29;118349.16;;;-140.64;53.74
7930;BME280;4010;42.698;23.124;2024-01-30T10:16:57;118349.16;;;-140.64;52.50
7930;BME280;4010;42.698;23.124;2024-01-30T10:19:24;118349.16;;;-140.64;53.32
7930;BME280;4010;42.698;23.124;2024-01-30T10:21:52;118349.16;;;-140.64;53.40
7930;BME280;4010;42.698;23.124;2024-01-30T10:24:23;118349.16;;;-140.64;52.46
7930;BME280;4010;42.698;23.124;2024-01-30T10:26:50;118349.16;;;-140.64;52.58
7930;BME280;4010;42.698;23.124;2024-01-30T10:29:17;118349.16;;;-140.64;52.93
7930;BME280;4010;42.698;23.124;2024-01-30T10:31:44;118349.16;;;-140.64;51.91
7930;BME280;4010;42.698;23.124;2024-01-30T10:34:11;118349.16;;;-140.64;51.94
7930;BME280;4010;42.698;23.124;2024-01-30T10:36:40;118349.16;;;-140.64;51.23
7930;BME280;4010;42.698;23.124;2024-01-30T10:39:09;118349.16;;;-140.64;51.60
7930;BME280;4010;42.698;23.124;2024-01-30T10:41:42;118349.16;;;-140.64;51.37
7930;BME280;4010;42.698;23.124;2024-01-30T10:44:10;118349.16;;;-140.64;51.56
7930;BME280;4010;42.698;23.124;2024-01-30T10:46:38;118349.16;;;-140.64;50.87
7930;BME280;4010;42.698;23.124;2024-01-30T10:49:05;118349.16;;;-140.64;50.99
7930;BME280;4010;42.698;23.124;2024-01-30T10:51:32;118349.16;;;-140.64;50.70
7930;BME280;4010;42.698;23.124;2024-01-30T10:54:01;118349.16;;;-140.64;51.51
7930;BME280;4010;42.698;23.124;2024-01-30T10:56:31;118349.16;;;-140.64;51.13
7930;BME280;4010;42.698;23.124;2024-01-30T10:58:58;118349.16;;;-140.64;50.57
7930;BME280;4010;42.698;23.124;2024-01-30T11:01:25;118349.16;;;-140.64;51.17
7930;BME280;4010;42.698;23.124;2024-01-30T11:03:54;118349.16;;;-140.64;50.83
7930;BME280;4010;42.698;23.124;2024-01-30T11:06:22;118349.16;;;-140.64;50.94
7930;BME280;4010;42.698;23.124;2024-01-30T11:09:00;118349.16;;;-140.64;50.88
7930;BME280;4010;42.698;23.124;2024-01-30T11:11:29;118349.16;;;-140.64;49.99
7930;BME280;4010;42.698;23.124;2024-01-30T11:14:00;118349.16;;;-140.64;50.24
7930;BME280;4010;42.698;23.124;2024-01-30T11:16:31;118349.16;;;-140.64;50.53
7930;BME280;4010;42.698;23.124;2024-01-30T11:19:00;118349.16;;;-140.64;51.04
7930;BME280;4010;42.698;23.124;2024-01-30T11:21:27;118349.16;;;-140.64;50.73
7930;BME280;4010;42.698;23.124;2024-01-30T11:23:54;118349.16;;;-140.64;49.09
7930;BME280;4010;42.698;23.124;2024-01-30T11:26:27;118349.16;;;-140.64;49.91
7930;BME280;4010;42.698;23.124;2024-01-30T11:28:55;118349.16;;;-140.64;50.02
7930;BME280;4010;42.698;23.124;2024-01-30T11:31:22;118349.16;;;-140.64;49.84
7930;BME280;4010;42.698;23.124;2024-01-30T11:33:52;118349.16;;;-140.64;49.44
7930;BME280;4010;42.698;23.124;2024-01-30T11:36:21;118349.16;;;-140.64;51.87
7930;BME280;4010;42.698;23.124;2024-01-30T11:38:51;118349.16;;;-140.64;50.30
7930;BME280;4010;42.698;23.124;2024-01-30T11:41:18;118349.16;;;-140.64;50.99
7930;BME280;4010;42.698;23.124;2024-01-30T11:43:51;118349.16;;;-140.64;50.22
7930;BME280;4010;42.698;23.124;2024-01-30T11:46:19;118349.16;;;-140.64;50.29
7930;BME280;4010;42.698;23.124;2024-01-30T11:48:46;118349.16;;;-140.64;48.95
7930;BME280;4010;42.698;23.124;2024-01-30T11:51:13;118349.16;;;-140.64;50.66
7930;BME280;4010;42.698;23.124;2024-01-30T11:53:41;118349.16;;;-140.64;50.05
7930;BME280;4010;42.698;23.124;2024-01-30T11:56:07;118349.16;;;-140.64;52.24
7930;BME280;4010;42.698;23.124;2024-01-30T11:58:34;118349.16;;;-140.64;51.94
7930;BME280;4010;42.698;23.124;2024-01-30T12:01:01;118349.16;;;-140.64;51.10
7930;BME280;4010;42.698;23.124;2024-01-30T12:03:29;118349.16;;;-140.64;51.79
7930;BME280;4010;42.698;23.124;2024-01-30T12:05:56;118349.16;;;-140.64;50.85
7930;BME280;4010;42.698;23.124;2024-01-30T12:08:23;118349.16;;;-140.64;50.77
7930;BME280;4010;42.698;23.124;2024-01-30T12:10:55;118349.16;;;-140.64;52.47
7930;BME280;4010;42.698;23.124;2024-01-30T12:13:22;118349.16;;;-140.64;51.67
7930;BME280;4010;42.698;23.124;2024-01-30T12:15:49;118349.16;;;-140.64;52.00
7930;BME280;4010;42.698;23.124;2024-01-30T12:18:18;118349.16;;;-140.64;51.89
7930;BME280;4010;42.698;23.124;2024-01-30T12:20:56;118349.16;;;-140.64;51.66
7930;BME280;4010;42.698;23.124;2024-01-30T12:23:23;118349.16;;;-140.64;51.15
7930;BME280;4010;42.698;23.124;2024-01-30T12:25:51;118349.16;;;-140.64;50.42
7930;BME280;4010;42.698;23.124;2024-01-30T12:28:18;118349.16;;;-140.64;51.10
7930;BME280;4010;42.698;23.124;2024-01-30T12:30:44;118349.16;;;-140.64;52.09
7930;BME280;4010;42.698;23.124;2024-01-30T12:33:16;118349.16;;;-140.64;52.04
7930;BME280;4010;42.698;23.124;2024-01-30T12:35:47;118349.16;;;-140.64;51.83
7930;BME280;4010;42.698;23.124;2024-01-30T12:38:13;118349.16;;;-140.64;50.53
7930;BME280;4010;42.698;23.124;2024-01-30T12:40:41;118349.16;;;-140.64;50.67